URO970P EHBK-EGHH
Flight info
| Callsign | URO970P |
|---|---|
| Flight time | 1h 2m |
| Altitude | 32000 |
| Route | LNO N852 TERLA L608 DENUT L610 KOPUL Q63 IPKUS M40 UMBUR |
| Aircraft | A346/H-SDE2E3FGHIJ3J4J5M1RWXY/LB1D1 |
Departure
| Time | 2026-05-07 15:53 |
|---|---|
| Airport | Maastricht Aachen Airport (EHBK) |
Arrival
| Time | 2026-05-07 16:55 |
|---|---|
| Airport | Bournemouth Airport (EGHH) |
| Time | Latitude | Longitude | Altitude | Speed | Heading |
|---|---|---|---|---|---|
| 2026-05-07 15:24 | 50.92211 | 5.77654 | 392 ft | 0 kts | 303° |
| 2026-05-07 15:46 | 50.92185 | 5.77703 | 392 ft | 4 kts | 318° |
| 2026-05-07 15:46 | 50.92165 | 5.77730 | 392 ft | 4 kts | 324° |
| 2026-05-07 15:46 | 50.92152 | 5.77744 | 392 ft | 0 kts | 324° |
| 2026-05-07 15:47 | 50.92153 | 5.77743 | 392 ft | 0 kts | 324° |
| 2026-05-07 15:47 | 50.92154 | 5.77742 | 392 ft | 0 kts | 323° |
| 2026-05-07 15:47 | 50.92160 | 5.77734 | 392 ft | 4 kts | 322° |
| 2026-05-07 15:47 | 50.92176 | 5.77725 | 392 ft | 2 kts | 23° |
| 2026-05-07 15:48 | 50.92177 | 5.77726 | 392 ft | 0 kts | 26° |
| 2026-05-07 15:48 | 50.92192 | 5.77720 | 392 ft | 3 kts | 297° |
| 2026-05-07 15:49 | 50.92188 | 5.77707 | 392 ft | 0 kts | 206° |
| 2026-05-07 15:49 | 50.92187 | 5.77707 | 392 ft | 0 kts | 205° |
| 2026-05-07 15:51 | 50.92187 | 5.77706 | 392 ft | 0 kts | 204° |
| 2026-05-07 15:51 | 50.92176 | 5.77704 | 392 ft | 4 kts | 176° |
| 2026-05-07 15:51 | 50.92139 | 5.77742 | 392 ft | 8 kts | 131° |
| 2026-05-07 15:52 | 50.92100 | 5.77827 | 393 ft | 11 kts | 123° |
| 2026-05-07 15:52 | 50.92031 | 5.77871 | 392 ft | 13 kts | 203° |
| 2026-05-07 15:52 | 50.92010 | 5.77853 | 392 ft | 0 kts | 212° |
| 2026-05-07 15:52 | 50.91922 | 5.77765 | 392 ft | 50 kts | 212° |
| 2026-05-07 15:53 | 50.91357 | 5.77193 | 393 ft | 138 kts | 212° |
| 2026-05-07 15:53 | 50.90324 | 5.76153 | 580 ft | 193 kts | 213° |
| 2026-05-07 15:53 | 50.89135 | 5.74978 | 1332 ft | 214 kts | 209° |
| 2026-05-07 15:53 | 50.87613 | 5.74333 | 1693 ft | 243 kts | 179° |
| 2026-05-07 15:54 | 50.85888 | 5.75165 | 2302 ft | 262 kts | 141° |
| 2026-05-07 15:54 | 50.84816 | 5.77470 | 3382 ft | 260 kts | 109° |
| 2026-05-07 15:54 | 50.84283 | 5.80232 | 4530 ft | 261 kts | 105° |
| 2026-05-07 15:54 | 50.83769 | 5.83019 | 5336 ft | 266 kts | 106° |
| 2026-05-07 15:55 | 50.83213 | 5.85892 | 5856 ft | 269 kts | 107° |
| 2026-05-07 15:55 | 50.82639 | 5.88720 | 6037 ft | 270 kts | 108° |
| 2026-05-07 15:55 | 50.81954 | 5.91523 | 6025 ft | 270 kts | 121° |
| 2026-05-07 15:55 | 50.80655 | 5.93649 | 6030 ft | 270 kts | 148° |
| 2026-05-07 15:56 | 50.78884 | 5.94639 | 6030 ft | 271 kts | 175° |
| 2026-05-07 15:56 | 50.77027 | 5.94310 | 6040 ft | 271 kts | 200° |
| 2026-05-07 15:56 | 50.75419 | 5.92782 | 6047 ft | 271 kts | 219° |
| 2026-05-07 15:56 | 50.73963 | 5.90857 | 6045 ft | 271 kts | 220° |
| 2026-05-07 15:57 | 50.72522 | 5.88933 | 6043 ft | 271 kts | 220° |
| 2026-05-07 15:57 | 50.71053 | 5.87005 | 6247 ft | 279 kts | 219° |
| 2026-05-07 15:57 | 50.69529 | 5.85031 | 7256 ft | 278 kts | 219° |
| 2026-05-07 15:57 | 50.68018 | 5.83089 | 8535 ft | 272 kts | 219° |
| 2026-05-07 15:58 | 50.66550 | 5.81179 | 9538 ft | 276 kts | 223° |
| 2026-05-07 15:58 | 50.65374 | 5.78760 | 10353 ft | 283 kts | 244° |
| 2026-05-07 15:58 | 50.64783 | 5.75720 | 10971 ft | 298 kts | 264° |
| 2026-05-07 15:58 | 50.64943 | 5.72373 | 11432 ft | 317 kts | 285° |
| 2026-05-07 15:59 | 50.65958 | 5.69177 | 11887 ft | 337 kts | 306° |
| 2026-05-07 15:59 | 50.67524 | 5.66234 | 12377 ft | 355 kts | 310° |
| 2026-05-07 15:59 | 50.69147 | 5.63150 | 12815 ft | 373 kts | 303° |
| 2026-05-07 15:59 | 50.70329 | 5.59526 | 13561 ft | 379 kts | 294° |
| 2026-05-07 16:00 | 50.71429 | 5.55644 | 14464 ft | 381 kts | 293° |
| 2026-05-07 16:00 | 50.72592 | 5.51508 | 15347 ft | 385 kts | 293° |
| 2026-05-07 16:00 | 50.73691 | 5.47606 | 16142 ft | 389 kts | 293° |
| 2026-05-07 16:00 | 50.74817 | 5.43623 | 16950 ft | 393 kts | 293° |
| 2026-05-07 16:01 | 50.75948 | 5.39625 | 17770 ft | 397 kts | 293° |
| 2026-05-07 16:01 | 50.77088 | 5.35598 | 18481 ft | 401 kts | 293° |
| 2026-05-07 16:01 | 50.78248 | 5.31504 | 19151 ft | 406 kts | 293° |
| 2026-05-07 16:01 | 50.79408 | 5.27406 | 19847 ft | 409 kts | 293° |
| 2026-05-07 16:02 | 50.80579 | 5.23263 | 20529 ft | 412 kts | 293° |
| 2026-05-07 16:02 | 50.81762 | 5.19073 | 21210 ft | 416 kts | 293° |
| 2026-05-07 16:02 | 50.82946 | 5.14869 | 21887 ft | 420 kts | 292° |
| 2026-05-07 16:02 | 50.84138 | 5.10629 | 22557 ft | 424 kts | 292° |
| 2026-05-07 16:03 | 50.84925 | 5.07825 | 22988 ft | 426 kts | 292° |
| 2026-05-07 16:03 | 50.86113 | 5.03587 | 23624 ft | 430 kts | 292° |
| 2026-05-07 16:03 | 50.87330 | 4.99237 | 24164 ft | 434 kts | 292° |
| 2026-05-07 16:03 | 50.88535 | 4.94922 | 24707 ft | 437 kts | 292° |
| 2026-05-07 16:04 | 50.89735 | 4.90616 | 25243 ft | 440 kts | 292° |
| 2026-05-07 16:04 | 50.90893 | 4.86453 | 25762 ft | 443 kts | 292° |
| 2026-05-07 16:04 | 50.92112 | 4.82068 | 26302 ft | 445 kts | 292° |
| 2026-05-07 16:04 | 50.93314 | 4.77734 | 26986 ft | 443 kts | 292° |
| 2026-05-07 16:05 | 50.94457 | 4.73606 | 27757 ft | 440 kts | 292° |
| 2026-05-07 16:05 | 50.95651 | 4.69288 | 28557 ft | 437 kts | 292° |
| 2026-05-07 16:05 | 50.96843 | 4.64972 | 29333 ft | 435 kts | 292° |
| 2026-05-07 16:05 | 50.97980 | 4.60843 | 30055 ft | 433 kts | 292° |
| 2026-05-07 16:06 | 50.99185 | 4.56458 | 30694 ft | 432 kts | 292° |
| 2026-05-07 16:06 | 51.00362 | 4.52162 | 31212 ft | 433 kts | 292° |
| 2026-05-07 16:06 | 51.01563 | 4.47769 | 31661 ft | 436 kts | 292° |
| 2026-05-07 16:06 | 51.02770 | 4.43349 | 32024 ft | 438 kts | 292° |
| 2026-05-07 16:07 | 51.03918 | 4.39139 | 32049 ft | 439 kts | 292° |
| 2026-05-07 16:07 | 51.06274 | 4.30480 | 32059 ft | 440 kts | 291° |
| 2026-05-07 16:08 | 51.08695 | 4.21547 | 32058 ft | 440 kts | 291° |
| 2026-05-07 16:08 | 51.11133 | 4.12514 | 32055 ft | 440 kts | 291° |
| 2026-05-07 16:09 | 51.13569 | 4.03455 | 32049 ft | 440 kts | 291° |
| 2026-05-07 16:09 | 51.15976 | 3.94469 | 32044 ft | 440 kts | 291° |
| 2026-05-07 16:10 | 51.18388 | 3.85434 | 32039 ft | 440 kts | 291° |
| 2026-05-07 16:10 | 51.20782 | 3.76425 | 32040 ft | 439 kts | 291° |
| 2026-05-07 16:11 | 51.23011 | 3.67357 | 32042 ft | 438 kts | 287° |
| 2026-05-07 16:11 | 51.24632 | 3.57993 | 32046 ft | 437 kts | 281° |
| 2026-05-07 16:12 | 51.25906 | 3.48489 | 32046 ft | 437 kts | 281° |
| 2026-05-07 16:12 | 51.27159 | 3.38974 | 32052 ft | 437 kts | 280° |
| 2026-05-07 16:13 | 51.28386 | 3.29458 | 32061 ft | 437 kts | 280° |
| 2026-05-07 16:13 | 51.29612 | 3.19862 | 32069 ft | 438 kts | 280° |
| 2026-05-07 16:14 | 51.30828 | 3.10300 | 32059 ft | 438 kts | 280° |
| 2026-05-07 16:14 | 51.32028 | 3.00798 | 32061 ft | 438 kts | 280° |
| 2026-05-07 16:15 | 51.32435 | 2.97564 | 32060 ft | 438 kts | 280° |
| 2026-05-07 16:15 | 51.34317 | 2.82500 | 32059 ft | 438 kts | 280° |
| 2026-05-07 16:16 | 51.35695 | 2.71365 | 32056 ft | 438 kts | 280° |
| 2026-05-07 16:16 | 51.36875 | 2.61795 | 32056 ft | 438 kts | 279° |
| 2026-05-07 16:17 | 51.38049 | 2.52214 | 32057 ft | 438 kts | 279° |
| 2026-05-07 16:17 | 51.39019 | 2.44249 | 32056 ft | 438 kts | 279° |
| 2026-05-07 16:18 | 51.40177 | 2.34665 | 32064 ft | 438 kts | 279° |
| 2026-05-07 16:18 | 51.41328 | 2.25078 | 32062 ft | 438 kts | 279° |
| 2026-05-07 16:19 | 51.42499 | 2.15502 | 32064 ft | 438 kts | 279° |
| 2026-05-07 16:19 | 51.43666 | 2.05913 | 32065 ft | 437 kts | 279° |
| 2026-05-07 16:20 | 51.44819 | 1.96325 | 32064 ft | 437 kts | 279° |
| 2026-05-07 16:20 | 51.45947 | 1.86728 | 32063 ft | 437 kts | 279° |
| 2026-05-07 16:21 | 51.47059 | 1.77141 | 32061 ft | 436 kts | 279° |
| 2026-05-07 16:21 | 51.48162 | 1.67555 | 32061 ft | 436 kts | 279° |
| 2026-05-07 16:22 | 51.49257 | 1.57963 | 32060 ft | 436 kts | 279° |
| 2026-05-07 16:22 | 51.50345 | 1.48372 | 32057 ft | 436 kts | 279° |
| 2026-05-07 16:23 | 51.51430 | 1.38741 | 32062 ft | 436 kts | 279° |
| 2026-05-07 16:23 | 51.52502 | 1.29144 | 32058 ft | 436 kts | 278° |
| 2026-05-07 16:24 | 51.53541 | 1.19513 | 32059 ft | 436 kts | 277° |
| 2026-05-07 16:24 | 51.54079 | 1.09826 | 32057 ft | 435 kts | 271° |
| 2026-05-07 16:25 | 51.54041 | 1.00101 | 32057 ft | 435 kts | 268° |
| 2026-05-07 16:25 | 51.53912 | 0.90379 | 32050 ft | 431 kts | 268° |
| 2026-05-07 16:25 | 51.53847 | 0.85585 | 31684 ft | 427 kts | 268° |
| 2026-05-07 16:26 | 51.53778 | 0.80771 | 30618 ft | 437 kts | 268° |
| 2026-05-07 16:26 | 51.53706 | 0.75819 | 29483 ft | 447 kts | 268° |
| 2026-05-07 16:26 | 51.53633 | 0.70830 | 28863 ft | 444 kts | 268° |
| 2026-05-07 16:26 | 51.53559 | 0.65881 | 28242 ft | 441 kts | 268° |
| 2026-05-07 16:27 | 51.53484 | 0.60959 | 27622 ft | 439 kts | 268° |
| 2026-05-07 16:27 | 51.53406 | 0.56060 | 26977 ft | 437 kts | 268° |
| 2026-05-07 16:27 | 51.53325 | 0.51172 | 26322 ft | 437 kts | 268° |
| 2026-05-07 16:27 | 51.53243 | 0.46328 | 25676 ft | 436 kts | 267° |
| 2026-05-07 16:28 | 51.52970 | 0.41500 | 25197 ft | 430 kts | 261° |
| 2026-05-07 16:28 | 51.52334 | 0.36768 | 24758 ft | 425 kts | 254° |
| 2026-05-07 16:28 | 51.51376 | 0.32305 | 24340 ft | 420 kts | 248° |
| 2026-05-07 16:28 | 51.50242 | 0.27964 | 23895 ft | 416 kts | 247° |
| 2026-05-07 16:29 | 51.49073 | 0.23632 | 23421 ft | 412 kts | 246° |
| 2026-05-07 16:29 | 51.47917 | 0.19358 | 22941 ft | 407 kts | 246° |
| 2026-05-07 16:29 | 51.46735 | 0.14974 | 22472 ft | 403 kts | 246° |
| 2026-05-07 16:29 | 51.45631 | 0.10867 | 22042 ft | 398 kts | 246° |
| 2026-05-07 16:30 | 51.44538 | 0.06810 | 21612 ft | 394 kts | 246° |
| 2026-05-07 16:30 | 51.43450 | 0.02778 | 21193 ft | 391 kts | 246° |
| 2026-05-07 16:30 | 51.42371 | -0.01212 | 20759 ft | 388 kts | 246° |
| 2026-05-07 16:30 | 51.41301 | -0.05172 | 20331 ft | 385 kts | 246° |
| 2026-05-07 16:31 | 51.40239 | -0.09086 | 19913 ft | 382 kts | 246° |
| 2026-05-07 16:31 | 51.39171 | -0.13019 | 19486 ft | 380 kts | 246° |
| 2026-05-07 16:31 | 51.38119 | -0.16884 | 19074 ft | 378 kts | 246° |
| 2026-05-07 16:31 | 51.37054 | -0.20795 | 18652 ft | 376 kts | 246° |
| 2026-05-07 16:32 | 51.35985 | -0.24712 | 18217 ft | 374 kts | 246° |
| 2026-05-07 16:32 | 51.34944 | -0.28521 | 17762 ft | 372 kts | 246° |
| 2026-05-07 16:32 | 51.33906 | -0.32310 | 17335 ft | 369 kts | 245° |
| 2026-05-07 16:32 | 51.32875 | -0.36066 | 16909 ft | 367 kts | 245° |
| 2026-05-07 16:33 | 51.31854 | -0.39790 | 16503 ft | 364 kts | 246° |
| 2026-05-07 16:33 | 51.30936 | -0.43555 | 16100 ft | 363 kts | 250° |
| 2026-05-07 16:33 | 51.30175 | -0.47463 | 15778 ft | 374 kts | 254° |
| 2026-05-07 16:33 | 51.29566 | -0.51570 | 15801 ft | 383 kts | 256° |
| 2026-05-07 16:34 | 51.29001 | -0.55781 | 15832 ft | 385 kts | 257° |
| 2026-05-07 16:34 | 51.28484 | -0.59985 | 15846 ft | 386 kts | 262° |
| 2026-05-07 16:34 | 51.28395 | -0.64295 | 15867 ft | 387 kts | 269° |
| 2026-05-07 16:34 | 51.28457 | -0.68568 | 15697 ft | 382 kts | 270° |
| 2026-05-07 16:35 | 51.28545 | -0.72829 | 15097 ft | 381 kts | 271° |
| 2026-05-07 16:35 | 51.28639 | -0.77092 | 14493 ft | 381 kts | 271° |
| 2026-05-07 16:35 | 51.28736 | -0.81302 | 13972 ft | 378 kts | 271° |
| 2026-05-07 16:35 | 51.28836 | -0.85519 | 13364 ft | 376 kts | 271° |
| 2026-05-07 16:36 | 51.28933 | -0.89663 | 13056 ft | 373 kts | 271° |
| 2026-05-07 16:36 | 51.29029 | -0.93810 | 13049 ft | 375 kts | 271° |
| 2026-05-07 16:36 | 51.29124 | -0.97953 | 13046 ft | 365 kts | 271° |
| 2026-05-07 16:36 | 51.29220 | -1.01919 | 13034 ft | 348 kts | 270° |
| 2026-05-07 16:37 | 51.29011 | -1.05650 | 12979 ft | 329 kts | 250° |
| 2026-05-07 16:37 | 51.27918 | -1.08711 | 13029 ft | 308 kts | 230° |
| 2026-05-07 16:37 | 51.26566 | -1.11239 | 13033 ft | 293 kts | 228° |
| 2026-05-07 16:37 | 51.25265 | -1.13639 | 12888 ft | 284 kts | 229° |
| 2026-05-07 16:38 | 51.24020 | -1.16010 | 12760 ft | 273 kts | 230° |
| 2026-05-07 16:38 | 51.22839 | -1.18320 | 12695 ft | 260 kts | 230° |
| 2026-05-07 16:38 | 51.21714 | -1.20550 | 12669 ft | 264 kts | 230° |
| 2026-05-07 16:38 | 51.20532 | -1.22891 | 12602 ft | 274 kts | 228° |
| 2026-05-07 16:39 | 51.19039 | -1.24750 | 12490 ft | 276 kts | 203° |
| 2026-05-07 16:39 | 51.17197 | -1.25638 | 12119 ft | 280 kts | 194° |
| 2026-05-07 16:39 | 51.15280 | -1.26367 | 11754 ft | 284 kts | 194° |
| 2026-05-07 16:39 | 51.13364 | -1.27101 | 11408 ft | 283 kts | 194° |
| 2026-05-07 16:40 | 51.11453 | -1.27852 | 11098 ft | 281 kts | 195° |
| 2026-05-07 16:40 | 51.09563 | -1.28631 | 10750 ft | 279 kts | 195° |
| 2026-05-07 16:40 | 51.07662 | -1.29425 | 10358 ft | 279 kts | 196° |
| 2026-05-07 16:40 | 51.05822 | -1.30196 | 10040 ft | 277 kts | 196° |
| 2026-05-07 16:41 | 51.03937 | -1.30986 | 9633 ft | 277 kts | 196° |
| 2026-05-07 16:41 | 51.02112 | -1.31751 | 9292 ft | 274 kts | 196° |
| 2026-05-07 16:41 | 51.00245 | -1.32531 | 8873 ft | 274 kts | 196° |
| 2026-05-07 16:41 | 50.98432 | -1.33288 | 8496 ft | 273 kts | 196° |
| 2026-05-07 16:42 | 50.96608 | -1.34100 | 8072 ft | 272 kts | 202° |
| 2026-05-07 16:42 | 50.95064 | -1.35775 | 7630 ft | 270 kts | 230° |
| 2026-05-07 16:42 | 50.94071 | -1.38282 | 7291 ft | 268 kts | 243° |
| 2026-05-07 16:42 | 50.93247 | -1.40975 | 7046 ft | 267 kts | 245° |
| 2026-05-07 16:43 | 50.92462 | -1.43673 | 7050 ft | 269 kts | 245° |
| 2026-05-07 16:43 | 50.91678 | -1.46395 | 7039 ft | 270 kts | 245° |
| 2026-05-07 16:43 | 50.90896 | -1.49109 | 7043 ft | 270 kts | 245° |
| 2026-05-07 16:43 | 50.90117 | -1.51815 | 7038 ft | 270 kts | 245° |
| 2026-05-07 16:44 | 50.89338 | -1.54522 | 7036 ft | 268 kts | 245° |
| 2026-05-07 16:44 | 50.88572 | -1.57183 | 6798 ft | 264 kts | 245° |
| 2026-05-07 16:44 | 50.87798 | -1.59860 | 6334 ft | 269 kts | 245° |
| 2026-05-07 16:44 | 50.87028 | -1.62525 | 5950 ft | 269 kts | 245° |
| 2026-05-07 16:45 | 50.86232 | -1.65285 | 5590 ft | 268 kts | 245° |
| 2026-05-07 16:45 | 50.85482 | -1.68008 | 5181 ft | 270 kts | 252° |
| 2026-05-07 16:45 | 50.85036 | -1.70858 | 4944 ft | 266 kts | 259° |
| 2026-05-07 16:45 | 50.84704 | -1.73721 | 4482 ft | 269 kts | 260° |
| 2026-05-07 16:46 | 50.84393 | -1.76683 | 4165 ft | 268 kts | 260° |
| 2026-05-07 16:46 | 50.84108 | -1.79555 | 3850 ft | 266 kts | 260° |
| 2026-05-07 16:46 | 50.83824 | -1.82514 | 3526 ft | 265 kts | 260° |
| 2026-05-07 16:46 | 50.83557 | -1.85347 | 3232 ft | 263 kts | 260° |
| 2026-05-07 16:47 | 50.83297 | -1.88239 | 2998 ft | 261 kts | 260° |
| 2026-05-07 16:47 | 50.83050 | -1.91092 | 2988 ft | 261 kts | 260° |
| 2026-05-07 16:47 | 50.82819 | -1.93949 | 2987 ft | 262 kts | 260° |
| 2026-05-07 16:47 | 50.82599 | -1.96811 | 2976 ft | 261 kts | 261° |
| 2026-05-07 16:48 | 50.82369 | -1.99670 | 2981 ft | 261 kts | 260° |
| 2026-05-07 16:48 | 50.82142 | -2.02520 | 2978 ft | 262 kts | 261° |
| 2026-05-07 16:48 | 50.81903 | -2.05386 | 2980 ft | 260 kts | 261° |
| 2026-05-07 16:48 | 50.81658 | -2.08246 | 2976 ft | 260 kts | 261° |
| 2026-05-07 16:49 | 50.81424 | -2.11083 | 2973 ft | 260 kts | 260° |
| 2026-05-07 16:49 | 50.81192 | -2.13933 | 2980 ft | 260 kts | 259° |
| 2026-05-07 16:49 | 50.80879 | -2.16737 | 2957 ft | 254 kts | 246° |
| 2026-05-07 16:49 | 50.79933 | -2.18921 | 2935 ft | 233 kts | 216° |
| 2026-05-07 16:50 | 50.78517 | -2.19864 | 2934 ft | 213 kts | 181° |
| 2026-05-07 16:50 | 50.77122 | -2.19565 | 2953 ft | 195 kts | 164° |
| 2026-05-07 16:50 | 50.75962 | -2.18686 | 2925 ft | 181 kts | 132° |
| 2026-05-07 16:50 | 50.75508 | -2.17609 | 2992 ft | 178 kts | 118° |
| 2026-05-07 16:51 | 50.75043 | -2.15777 | 3014 ft | 180 kts | 111° |
| 2026-05-07 16:51 | 50.74648 | -2.13906 | 2995 ft | 179 kts | 110° |
| 2026-05-07 16:51 | 50.74268 | -2.12031 | 2979 ft | 180 kts | 110° |
| 2026-05-07 16:51 | 50.74017 | -2.10084 | 2974 ft | 182 kts | 95° |
| 2026-05-07 16:52 | 50.74098 | -2.08081 | 2969 ft | 184 kts | 84° |
| 2026-05-07 16:52 | 50.74367 | -2.06111 | 2797 ft | 183 kts | 79° |
| 2026-05-07 16:52 | 50.74711 | -2.04162 | 2541 ft | 181 kts | 78° |
| 2026-05-07 16:52 | 50.75044 | -2.02268 | 2284 ft | 179 kts | 79° |
| 2026-05-07 16:53 | 50.75348 | -2.00459 | 2029 ft | 169 kts | 79° |
| 2026-05-07 16:53 | 50.75628 | -1.98750 | 1781 ft | 156 kts | 79° |
| 2026-05-07 16:53 | 50.75896 | -1.97097 | 1586 ft | 154 kts | 80° |
| 2026-05-07 16:53 | 50.76167 | -1.95416 | 1387 ft | 153 kts | 79° |
| 2026-05-07 16:54 | 50.76435 | -1.93783 | 1192 ft | 153 kts | 80° |
| 2026-05-07 16:54 | 50.76687 | -1.92152 | 950 ft | 152 kts | 82° |
| 2026-05-07 16:54 | 50.76962 | -1.90534 | 747 ft | 153 kts | 78° |
| 2026-05-07 16:54 | 50.77231 | -1.88922 | 531 ft | 152 kts | 84° |
| 2026-05-07 16:55 | 50.77503 | -1.87290 | 359 ft | 153 kts | 78° |
| 2026-05-07 16:55 | 50.77772 | -1.85676 | 122 ft | 150 kts | 78° |
| 2026-05-07 16:55 | 50.78011 | -1.84214 | 51 ft | 100 kts | 74° |
| 2026-05-07 16:55 | 50.78127 | -1.83527 | 50 ft | 39 kts | 75° |
| 2026-05-07 16:56 | 50.78183 | -1.83186 | 52 ft | 30 kts | 75° |
| 2026-05-07 16:56 | 50.78229 | -1.82910 | 51 ft | 17 kts | 82° |
| 2026-05-07 16:56 | 50.78244 | -1.82787 | 51 ft | 7 kts | 273° |
| 2026-05-07 16:57 | 50.78234 | -1.82883 | 50 ft | 11 kts | 256° |
| 2026-05-07 16:57 | 50.78209 | -1.83032 | 52 ft | 18 kts | 256° |
| 2026-05-07 16:57 | 50.78176 | -1.83237 | 51 ft | 21 kts | 255° |
| 2026-05-07 16:57 | 50.78137 | -1.83477 | 52 ft | 24 kts | 255° |
| 2026-05-07 16:58 | 50.78091 | -1.83748 | 52 ft | 21 kts | 255° |
| 2026-05-07 16:58 | 50.78122 | -1.83919 | 49 ft | 18 kts | 334° |
| 2026-05-07 16:58 | 50.78254 | -1.83975 | 50 ft | 21 kts | 346° |
| 2026-05-07 16:58 | 50.78391 | -1.84032 | 54 ft | 21 kts | 345° |
| 2026-05-07 16:59 | 50.78540 | -1.84095 | 49 ft | 18 kts | 345° |
| 2026-05-07 16:59 | 50.78620 | -1.84167 | 53 ft | 6 kts | 270° |
| 2026-05-07 16:59 | 50.78609 | -1.84249 | 51 ft | 9 kts | 258° |
| 2026-05-07 16:59 | 50.78607 | -1.84263 | 53 ft | 0 kts | 258° |